Terminal Aerodrome Forecast
Issued by NWS

Home | Current Version | Previous Version | Graphics & Text | Print | Product List | Glossary On
Versions: 1 2 3 4 5 6 7 8 9 10 11 12 13
170
FTUS45 KGGW 210520
TAFSDY
TAF
KSDY 210520Z 2106/2206 28019G32KT P6SM SCT110
     FM210900 26016G24KT P6SM SCT160
     FM211800 28018G27KT P6SM SCT045
     FM212300 28013KT P6SM FEW040=

USA.gov is the U.S. government's official web portal to all federal, state and local government web resources and services.